Etusivu
METAR-TAF:

METAR-TAF

Lentoasemat :

Ephrata Municipal Airport

Ephrata, Washington, Yhdysvallat

Leveyspiiri: 47-18-27N, Pituuspiiri: 119-30-57W, korkeus merenpinnasta: 389 m

Tämänhetkinen sää

Tämä raportti tehtiin 36 minuuttia sitten, kello 08.53 UTC
Tuuli 7 kn koillisesta puuskistuen 15 kn:hen
Lämpötila 21°C
Kosteus 33%
Ilmanpaine 1008 hPa
Näkyvyys: 16.1 km
selkeää

METAR: KEPH 120853Z AUTO 04007G15KT 10SM CLR 21/04 A2977 RMK AO2 SLP071 T02060039 53019

Aika: 02:29 (09:29 UTC)


TAF: puuttuu

Säähavainnot ja -ennusteet yli 4000 lentoasemalta (METAR- ja TAF-raportit).

Käytössä olevat sääasemat on merkitty karttaan keltaisilla ja punaisilla pisteillä.

Aseta hiiri pisteen päälle nähdäksesi sääaseman nimen.

Klikkaa sitten nähdäksesi säähavainnot ja -ennusteet.

Kartan vaihtaminen: klikkaa mustalla rastilla varustettuja vihreitä pisteitä, niin voit zoomata sisään; viivalla varustettua vihreää pistettä, niin voit zoomata ulos tai vihreitä nuolia, niin pääset viereisille kartoille.


METAR-TAF: